Time;durP1;ratioP1;P1;durP2;ratioP2;P2;SDS_P1;SDS_P2;PMS_P1;PMS_P2;Temp;Humidity;BMP_temperature;BMP_pressure;BME280_temperature;BME280_humidity;BME280_pressure;Samples;Min_cycle;Max_cycle;Signal;HPM_P1;HPM_P2
2022/04/10 00:01:55;;;;;;;;;;;3.00;99.90;;;;;;5045617;28;20035;-64
2022/04/10 00:04:23;;;;;;;;;;;3.00;99.90;;;;;;5029478;28;20319;-65
2022/04/10 00:06:50;;;;;;;;;;;3.10;99.90;;;;;;5023047;28;19965;-66
2022/04/10 00:09:17;;;;;;;;;;;3.00;99.90;;;;;;5025755;28;19932;-65
2022/04/10 00:11:45;;;;;;;;;;;3.10;99.90;;;;;;5026771;28;20268;-66
2022/04/10 00:14:13;;;;;;;;;;;3.20;99.90;;;;;;5028480;28;19929;-65
2022/04/10 00:16:40;;;;;;;;;;;3.20;99.90;;;;;;5028427;28;19929;-66
2022/04/10 00:19:08;;;;;;;;;;;3.10;99.90;;;;;;5024454;28;20475;-65
2022/04/10 00:21:35;;;;;;;;;;;3.10;99.90;;;;;;5027027;28;19930;-65
2022/04/10 00:24:03;;;;;;;;;;;3.20;99.90;;;;;;5025604;28;20365;-65
2022/04/10 00:26:30;;;;;;;;;;;3.20;99.90;;;;;;5023654;28;20024;-66
2022/04/10 00:28:58;;;;;;;;;;;3.20;99.90;;;;;;5025706;28;20364;-65
2022/04/10 00:31:26;;;;;;;;;;;3.20;99.90;;;;;;5024327;28;19929;-65
2022/04/10 00:33:53;;;;;;;;;;;3.30;99.90;;;;;;5027837;28;19937;-66
2022/04/10 00:36:21;;;;;;;;;;;3.30;99.90;;;;;;5027426;28;19944;-65
2022/04/10 00:38:48;;;;;;;;;;;3.30;99.90;;;;;;5038772;28;19999;-66
2022/04/10 00:41:15;;;;;;;;;;;3.40;99.90;;;;;;5023987;28;20036;-66
2022/04/10 00:44:01;;;;;;;;;;;3.40;99.90;;;;;;5025417;28;19934;-67
2022/04/10 00:46:29;;;;;;;;;;;3.30;99.90;;;;;;5028571;28;19929;-66
2022/04/10 00:48:56;;;;;;;;;;;3.30;99.90;;;;;;5027452;28;19932;-65
2022/04/10 00:51:46;;;;;;;;;;;3.30;99.90;;;;;;5040580;28;19933;-66
2022/04/10 00:54:15;;;;;;;;;;;3.30;99.90;;;;;;5038421;28;19937;-65
2022/04/10 00:56:43;;;;;;;;;;;3.30;99.90;;;;;;5046323;28;20376;-66
2022/04/10 00:59:11;;;;;;;;;;;3.20;99.90;;;;;;5057345;28;19939;-65
2022/04/10 01:01:44;;;;;;;;;;;3.10;99.90;;;;;;5041173;28;19961;-65
2022/04/10 01:04:31;;;;;;;;;;;3.10;99.90;;;;;;5013954;28;19937;-65
2022/04/10 01:06:59;;;;;;;;;;;3.00;99.90;;;;;;5010078;28;19925;-65
2022/04/10 01:09:27;;;;;;;;;;;2.90;99.90;;;;;;5016769;28;19925;-65
2022/04/10 01:11:55;;;;;;;;;;;2.80;99.90;;;;;;5013899;28;19932;-65
2022/04/10 01:14:24;;;;;;;;;;;2.80;99.90;;;;;;5020424;28;19929;-65
2022/04/10 01:16:52;;;;;;;;;;;2.80;99.90;;;;;;5031275;28;20343;-65
2022/04/10 01:19:21;;;;;;;;;;;2.90;99.90;;;;;;5015007;28;19972;-65
2022/04/10 01:21:53;;;;;;;;;;;2.90;99.90;;;;;;5022626;28;20388;-65
2022/04/10 01:24:21;;;;;;;;;;;2.90;99.90;;;;;;5018486;28;20294;-65
2022/04/10 01:26:49;;;;;;;;;;;3.00;99.90;;;;;;5017918;28;20003;-65
2022/04/10 01:29:20;;;;;;;;;;;3.00;99.90;;;;;;5030886;28;19939;-65
2022/04/10 01:31:48;;;;;;;;;;;2.90;99.90;;;;;;5019606;28;20392;-66
2022/04/10 01:34:16;;;;;;;;;;;2.90;99.90;;;;;;5016923;28;19929;-65
2022/04/10 01:36:44;;;;;;;;;;;2.80;99.90;;;;;;5016659;28;19983;-65
2022/04/10 01:39:14;;;;;;;;;;;2.80;99.90;;;;;;5009554;28;19933;-66
2022/04/10 01:41:44;;;;;;;;;;;2.80;99.90;;;;;;5009660;28;19971;-64
2022/04/10 01:44:12;;;;;;;;;;;2.80;99.90;;;;;;5013078;28;20020;-65
2022/04/10 01:46:39;;;;;;;;;;;2.80;99.90;;;;;;5036540;28;19925;-65
2022/04/10 01:49:09;;;;;;;;;;;2.70;99.90;;;;;;5027644;28;20054;-65
2022/04/10 01:51:37;;;;;;;;;;;2.70;99.90;;;;;;5012188;28;19929;-66
2022/04/10 01:54:05;;;;;;;;;;;2.70;99.90;;;;;;5013288;28;20439;-65
2022/04/10 01:56:33;;;;;;;;;;;2.70;99.90;;;;;;5015606;28;20370;-65
2022/04/10 01:59:03;;;;;;;;;;;2.60;99.90;;;;;;5009578;28;19948;-66
2022/04/10 02:01:30;;;;;;;;;;;2.60;99.90;;;;;;5013282;28;19929;-65
2022/04/10 02:03:58;;;;;;;;;;;2.50;99.90;;;;;;5013700;28;20307;-66
2022/04/10 02:06:25;;;;;;;;;;;2.50;99.90;;;;;;5016187;28;19929;-65
2022/04/10 02:08:52;;;;;;;;;;;2.50;99.90;;;;;;5031857;28;20471;-66
2022/04/10 02:11:21;;;;;;;;;;;2.40;99.90;;;;;;5027319;28;19929;-65
2022/04/10 02:13:52;;;;;;;;;;;2.30;99.90;;;;;;5016786;28;19955;-65
2022/04/10 02:16:20;;;;;;;;;;;2.30;99.90;;;;;;5015830;28;20359;-66
2022/04/10 02:18:48;;;;;;;;;;;2.30;99.90;;;;;;5011730;28;19929;-65
2022/04/10 02:21:15;;;;;;;;;;;2.30;99.90;;;;;;5010858;28;20404;-66
2022/04/10 02:23:43;;;;;;;;;;;2.30;99.90;;;;;;5006273;28;20184;-65
2022/04/10 02:26:11;;;;;;;;;;;2.20;99.90;;;;;;5024435;28;19933;-64
2022/04/10 02:28:40;;;;;;;;;;;2.10;99.90;;;;;;5021383;28;19929;-65
2022/04/10 02:31:08;;;;;;;;;;;2.10;99.90;;;;;;5011797;28;19929;-66
2022/04/10 02:33:37;;;;;;;;;;;2.10;99.90;;;;;;5006689;28;20056;-66
2022/04/10 02:36:05;;;;;;;;;;;2.10;99.90;;;;;;5016182;28;19948;-66
2022/04/10 02:38:35;;;;;;;;;;;2.10;99.90;;;;;;5010713;28;19935;-66
2022/04/10 02:41:04;;;;;;;;;;;2.00;99.90;;;;;;5006749;28;19940;-65
2022/04/10 02:43:31;;;;;;;;;;;2.00;99.90;;;;;;5027734;28;20635;-65
2022/04/10 02:46:02;;;;;;;;;;;2.00;99.90;;;;;;5010670;28;19998;-65
2022/04/10 02:48:31;;;;;;;;;;;2.00;99.90;;;;;;5011826;28;19936;-65
2022/04/10 02:51:02;;;;;;;;;;;2.00;99.90;;;;;;5010552;28;20031;-65
2022/04/10 02:53:30;;;;;;;;;;;2.00;99.90;;;;;;5011125;28;20367;-65
2022/04/10 02:55:57;;;;;;;;;;;2.00;99.90;;;;;;5009214;28;19929;-65
2022/04/10 02:58:43;;;;;;;;;;;2.00;99.90;;;;;;5021082;28;19970;-65
2022/04/10 03:01:28;;;;;;;;;;;2.00;99.90;;;;;;5008937;28;20316;-65
2022/04/10 03:04:14;;;;;;;;;;;2.00;99.90;;;;;;5037705;28;19939;-64
2022/04/10 03:07:00;;;;;;;;;;;2.00;99.90;;;;;;5024564;28;20315;-65
2022/04/10 03:09:47;;;;;;;;;;;2.10;99.90;;;;;;5004936;28;20063;-65
2022/04/10 03:12:33;;;;;;;;;;;2.10;99.90;;;;;;5027951;28;20138;-65
2022/04/10 03:15:19;;;;;;;;;;;2.00;99.90;;;;;;5020497;28;19936;-65
2022/04/10 03:18:05;;;;;;;;;;;2.00;99.90;;;;;;5010455;28;20042;-68
2022/04/10 03:20:51;;;;;;;;;;;1.90;99.90;;;;;;5010142;28;19983;-64
2022/04/10 03:23:38;;;;;;;;;;;1.90;99.90;;;;;;5015116;28;19932;-66
2022/04/10 03:26:25;;;;;;;;;;;1.80;99.90;;;;;;5005506;28;20087;-66
2022/04/10 03:29:12;;;;;;;;;;;1.80;99.90;;;;;;5013648;28;20027;-65
2022/04/10 03:31:59;;;;;;;;;;;1.70;99.90;;;;;;5014912;28;19944;-65
2022/04/10 03:34:45;;;;;;;;;;;1.60;99.90;;;;;;5008607;28;19940;-64
2022/04/10 03:37:31;;;;;;;;;;;1.60;99.90;;;;;;5047086;28;19935;-64
2022/04/10 03:40:17;;;;;;;;;;;1.50;99.90;;;;;;5034451;28;19932;-65
2022/04/10 03:43:08;;;;;;;;;;;1.60;99.90;;;;;;5038911;28;20002;-66
2022/04/10 03:45:54;;;;;;;;;;;1.50;99.90;;;;;;5021622;28;19940;-66
2022/04/10 03:48:40;;;;;;;;;;;1.50;99.90;;;;;;5025637;28;19936;-65
2022/04/10 03:51:26;;;;;;;;;;;1.40;99.90;;;;;;5020924;28;20046;-66
2022/04/10 03:54:12;;;;;;;;;;;1.40;99.90;;;;;;5012921;28;19937;-64
2022/04/10 03:56:58;;;;;;;;;;;1.40;99.90;;;;;;5027596;28;19960;-66
2022/04/10 03:59:44;;;;;;;;;;;1.40;99.90;;;;;;5038816;28;19998;-67
2022/04/10 04:02:30;;;;;;;;;;;1.40;99.90;;;;;;5017975;28;20399;-67
2022/04/10 04:05:16;;;;;;;;;;;1.30;99.90;;;;;;5027982;28;19932;-66
2022/04/10 04:08:03;;;;;;;;;;;1.30;99.90;;;;;;5030161;28;20066;-67
2022/04/10 04:10:50;;;;;;;;;;;1.30;99.90;;;;;;5006226;28;19952;-66
2022/04/10 04:13:40;;;;;;;;;;;1.30;99.90;;;;;;5008278;28;19932;-67
2022/04/10 04:16:27;;;;;;;;;;;1.30;99.90;;;;;;5021670;28;19978;-65
2022/04/10 04:19:13;;;;;;;;;;;1.30;99.90;;;;;;5012627;28;20441;-67
2022/04/10 04:21:59;;;;;;;;;;;1.30;99.90;;;;;;5013256;28;19962;-67
2022/04/10 04:24:47;;;;;;;;;;;1.30;99.90;;;;;;5013422;28;19952;-65
2022/04/10 04:27:33;;;;;;;;;;;1.30;99.90;;;;;;5024537;28;19940;-67
2022/04/10 04:30:19;;;;;;;;;;;1.30;99.90;;;;;;5013166;28;19939;-67
2022/04/10 04:33:08;;;;;;;;;;;1.30;99.90;;;;;;5007938;28;19936;-65
2022/04/10 04:35:54;;;;;;;;;;;1.30;99.90;;;;;;5028402;28;19936;-66
2022/04/10 04:38:40;;;;;;;;;;;1.20;99.90;;;;;;5030720;28;19936;-66
2022/04/10 04:41:28;;;;;;;;;;;1.20;99.90;;;;;;5027196;28;19932;-66
2022/04/10 04:44:14;;;;;;;;;;;1.20;99.90;;;;;;5015075;28;19936;-66
2022/04/10 04:47:01;;;;;;;;;;;1.10;99.90;;;;;;5014371;28;19931;-66
2022/04/10 04:49:47;;;;;;;;;;;1.10;99.90;;;;;;5030157;28;20462;-67
2022/04/10 04:52:33;;;;;;;;;;;1.20;99.90;;;;;;5018323;28;19936;-66
2022/04/10 04:55:18;;;;;;;;;;;1.10;99.90;;;;;;5015972;28;20067;-66
2022/04/10 04:58:04;;;;;;;;;;;1.20;99.90;;;;;;5028409;28;19988;-66
2022/04/10 05:00:50;;;;;;;;;;;1.20;99.90;;;;;;5020096;28;19935;-66
2022/04/10 05:03:38;;;;;;;;;;;1.30;99.90;;;;;;5021835;28;19935;-66
2022/04/10 05:06:29;;;;;;;;;;;1.30;99.90;;;;;;5013792;28;19987;-67
2022/04/10 05:09:15;;;;;;;;;;;1.30;99.90;;;;;;5012854;28;20379;-66
2022/04/10 05:12:01;;;;;;;;;;;1.30;99.90;;;;;;5012877;28;19991;-66
2022/04/10 05:14:49;;;;;;;;;;;1.30;99.90;;;;;;5013792;28;19936;-67
2022/04/10 05:17:35;;;;;;;;;;;1.40;99.90;;;;;;5015787;28;19944;-67
2022/04/10 05:20:23;;;;;;;;;;;1.40;99.90;;;;;;5021447;28;20410;-66
2022/04/10 05:23:24;;;;;;;;;;;1.50;99.90;;;;;;5015174;28;19935;-66
2022/04/10 05:26:19;;;;;;;;;;;1.60;99.90;;;;;;5017747;28;19951;-64
2022/04/10 05:29:11;;;;;;;;;;;1.70;99.90;;;;;;5017487;28;20008;-66
2022/04/10 05:31:57;;;;;;;;;;;1.80;99.90;;;;;;5013607;28;20026;-66
2022/04/10 05:34:45;;;;;;;;;;;1.80;99.90;;;;;;5013762;28;20095;-66
2022/04/10 05:37:32;;;;;;;;;;;1.80;99.90;;;;;;5002052;28;20057;-64
2022/04/10 05:40:19;;;;;;;;;;;1.90;99.90;;;;;;5029814;28;19936;-65
2022/04/10 05:43:04;;;;;;;;;;;2.00;99.90;;;;;;5013958;28;19936;-66
2022/04/10 05:45:51;;;;;;;;;;;2.10;99.90;;;;;;5016378;28;20056;-66
2022/04/10 05:48:37;;;;;;;;;;;2.20;99.90;;;;;;5030065;28;19936;-64
2022/04/10 05:51:24;;;;;;;;;;;2.20;99.90;;;;;;5015692;28;20022;-65
2022/04/10 05:54:13;;;;;;;;;;;2.20;99.90;;;;;;5011604;28;20055;-66
2022/04/10 05:57:04;;;;;;;;;;;2.30;99.90;;;;;;5015473;28;19932;-64
2022/04/10 05:59:51;;;;;;;;;;;2.40;99.90;;;;;;5032688;28;20410;-65
2022/04/10 06:02:38;;;;;;;;;;;2.40;99.90;;;;;;5019617;28;19933;-66
2022/04/10 06:05:24;;;;;;;;;;;2.60;99.90;;;;;;5007256;28;19936;-66
2022/04/10 06:08:17;;;;;;;;;;;2.50;99.90;;;;;;5011761;28;20383;-66
2022/04/10 06:11:04;;;;;;;;;;;2.60;99.90;;;;;;5017419;28;19939;-65
2022/04/10 06:13:51;;;;;;;;;;;2.70;99.90;;;;;;5014572;28;19936;-67
2022/04/10 06:16:24;;;;;;;;;;;2.80;99.90;;;;;;5016053;28;19937;-65
2022/04/10 06:18:52;;;;;;;;;;;2.70;99.90;;;;;;5016528;28;19936;-66
2022/04/10 06:21:20;;;;;;;;;;;2.70;99.90;;;;;;5011093;28;19925;-65
2022/04/10 06:23:47;;;;;;;;;;;2.60;99.90;;;;;;5010775;28;19933;-66
2022/04/10 06:26:26;;;;;;;;;;;2.60;99.90;;;;;;5009278;28;20308;-66
2022/04/10 06:28:54;;;;;;;;;;;2.60;99.90;;;;;;5014071;28;19933;-66
2022/04/10 06:31:31;;;;;;;;;;;2.70;99.90;;;;;;5006735;28;20454;-66
2022/04/10 06:33:59;;;;;;;;;;;2.70;99.90;;;;;;5023227;28;19976;-66
2022/04/10 06:36:27;;;;;;;;;;;2.80;99.90;;;;;;5012209;28;20271;-66
2022/04/10 06:38:54;;;;;;;;;;;3.00;99.90;;;;;;5030924;28;19929;-65
2022/04/10 06:41:27;;;;;;;;;;;3.10;99.90;;;;;;5023940;28;19933;-66
2022/04/10 06:43:56;;;;;;;;;;;3.30;99.90;;;;;;5020418;28;19998;-67
2022/04/10 06:46:26;;;;;;;;;;;3.30;99.90;;;;;;5039387;28;20356;-65
2022/04/10 06:49:05;;;;;;;;;;;3.50;99.90;;;;;;5012967;28;20020;-67
2022/04/10 06:51:32;;;;;;;;;;;3.60;99.90;;;;;;5014412;28;19979;-67
2022/04/10 06:54:04;;;;;;;;;;;3.70;99.90;;;;;;5014032;28;19925;-67
2022/04/10 06:56:33;;;;;;;;;;;3.80;99.90;;;;;;5023583;28;19971;-65
2022/04/10 06:59:00;;;;;;;;;;;3.90;99.90;;;;;;5023868;28;20276;-66
2022/04/10 07:01:28;;;;;;;;;;;4.00;99.90;;;;;;5027582;28;19949;-65
2022/04/10 07:04:01;;;;;;;;;;;3.90;99.90;;;;;;5013090;28;19929;-67
2022/04/10 07:06:29;;;;;;;;;;;3.90;99.90;;;;;;5025772;28;20300;-65
2022/04/10 07:09:00;;;;;;;;;;;3.80;99.90;;;;;;5016407;28;19933;-66
2022/04/10 07:11:32;;;;;;;;;;;3.80;99.90;;;;;;5008937;28;20415;-66
2022/04/10 07:14:02;;;;;;;;;;;3.70;99.90;;;;;;5012387;28;19956;-67
2022/04/10 07:16:30;;;;;;;;;;;3.70;99.90;;;;;;5010612;28;19929;-67
2022/04/10 07:18:57;;;;;;;;;;;3.70;99.90;;;;;;5026332;28;19933;-68
2022/04/10 07:24:31;;;;;;;;;;;3.90;99.90;;;;;;4950770;29;19950;-68
2022/04/10 07:26:58;;;;;;;;;;;4.10;99.90;;;;;;4951902;29;20440;-68
2022/04/10 07:29:33;;;;;;;;;;;4.30;99.90;;;;;;4952107;28;19989;-68
2022/04/10 07:32:03;;;;;;;;;;;4.50;99.90;;;;;;4937967;28;19934;-67
2022/04/10 07:34:35;;;;;;;;;;;4.60;99.90;;;;;;4943263;28;19934;-67
2022/04/10 07:37:10;;;;;;;;;;;4.70;99.90;;;;;;4933488;29;19934;-67
2022/04/10 07:39:46;;;;;;;;;;;4.70;99.90;;;;;;4949802;28;19931;-66
2022/04/10 07:42:26;;;;;;;;;;;4.80;99.90;;;;;;4950290;28;20362;-66
2022/04/10 07:47:25;;;;;;;;;;;5.00;99.90;;;;;;4933859;29;19927;-66
2022/04/10 07:48:23;;;;;;;;;;;5.00;99.90;;;;;;4933433;28;19926;-66
2022/04/10 07:50:51;;;;;;;;;;;5.00;99.90;;;;;;4948626;28;20081;-65
2022/04/10 07:53:27;;;;;;;;;;;5.00;99.90;;;;;;4948605;28;19989;-66
2022/04/10 07:55:58;;;;;;;;;;;4.80;99.90;;;;;;4934479;28;20410;-66
2022/04/10 07:58:25;;;;;;;;;;;4.90;99.90;;;;;;4981077;28;19929;-65
2022/04/10 08:00:54;;;;;;;;;;;4.90;99.90;;;;;;5019538;28;19929;-66
2022/04/10 08:03:22;;;;;;;;;;;5.00;99.90;;;;;;5008875;28;19929;-66
2022/04/10 08:05:49;;;;;;;;;;;5.10;99.90;;;;;;4999694;28;19936;-66
2022/04/10 08:08:31;;;;;;;;;;;5.20;99.90;;;;;;5017988;28;19929;-66
2022/04/10 08:10:58;;;;;;;;;;;5.30;99.90;;;;;;4998864;28;19976;-67
2022/04/10 08:13:25;;;;;;;;;;;5.50;99.90;;;;;;5022149;28;19953;-67
2022/04/10 08:15:53;;;;;;;;;;;5.60;99.90;;;;;;5018289;28;20347;-66
2022/04/10 08:18:20;;;;;;;;;;;5.70;99.90;;;;;;5026502;28;20640;-67
2022/04/10 08:20:47;;;;;;;;;;;5.90;99.90;;;;;;5042128;28;20442;-67
2022/04/10 08:23:14;;;;;;;;;;;6.00;99.90;;;;;;5024906;28;19929;-67
2022/04/10 08:25:41;;;;;;;;;;;6.30;99.90;;;;;;5035018;28;20805;-66
2022/04/10 08:28:08;;;;;;;;;;;6.40;99.90;;;;;;5028049;28;19929;-67
2022/04/10 08:30:35;;;;;;;;;;;6.30;99.90;;;;;;5026581;28;20018;-66
2022/04/10 08:33:03;;;;;;;;;;;6.20;99.90;;;;;;5030589;28;19965;-67
2022/04/10 08:35:31;;;;;;;;;;;6.10;99.90;;;;;;4997780;28;19929;-66
2022/04/10 08:37:59;;;;;;;;;;;6.30;99.90;;;;;;5026812;28;19929;-65
2022/04/10 08:40:29;;;;;;;;;;;6.50;99.90;;;;;;5025625;28;19976;-66
2022/04/10 08:42:58;;;;;;;;;;;6.70;99.90;;;;;;5034083;28;20312;-67
2022/04/10 08:45:25;;;;;;;;;;;6.80;99.90;;;;;;5031335;28;19964;-66
2022/04/10 08:47:53;;;;;;;;;;;6.80;99.90;;;;;;5033032;28;19929;-67
2022/04/10 08:50:22;;;;;;;;;;;6.80;99.90;;;;;;5024782;28;19971;-67
2022/04/10 08:52:55;;;;;;;;;;;6.70;99.90;;;;;;5050721;28;19929;-67
2022/04/10 08:55:22;;;;;;;;;;;6.80;99.90;;;;;;5036407;28;19929;-67
2022/04/10 08:57:50;;;;;;;;;;;6.80;99.90;;;;;;5022834;28;19971;-66
2022/04/10 09:00:18;;;;;;;;;;;6.80;99.90;;;;;;5037316;28;19972;-67
2022/04/10 09:02:47;;;;;;;;;;;6.60;99.90;;;;;;5034870;28;19925;-66
2022/04/10 09:05:18;;;;;;;;;;;6.50;99.90;;;;;;5035046;28;19925;-67
2022/04/10 09:08:04;;;;;;;;;;;6.40;99.90;;;;;;5009432;28;20006;-67
2022/04/10 09:26:51;;;;;;;;;;;22.40;94.40;;;;;;5072251;27;20070;-58
2022/04/10 09:31:37;;;;;;;5.45;1.50;;;22.00;90.50;;;;;;5031835;28;20500;-59
2022/04/10 09:34:07;;;;;;;5.45;1.40;;;21.30;99.20;;;;;;5041020;28;20049;-59
2022/04/10 09:38:55;;;;;;;5.93;2.45;;;17.30;82.40;;;;;;5098246;27;20454;-64
2022/04/10 09:41:22;;;;;;;6.78;2.58;;;13.40;90.80;;;;;;5089732;28;20500;-65
2022/04/10 09:43:50;;;;;;;8.48;1.90;;;10.80;93.70;;;;;;5094414;28;20409;-67
2022/04/10 09:46:17;;;;;;;5.82;2.20;;;9.50;95.70;;;;;;5095411;28;20040;-65
2022/04/10 09:48:45;;;;;;;5.93;2.17;;;8.80;96.90;;;;;;5096943;28;20123;-65
2022/04/10 09:51:12;;;;;;;7.70;1.85;;;8.10;98.90;;;;;;5079873;28;20495;-65
2022/04/10 09:53:40;;;;;;;8.95;1.60;;;8.10;98.90;;;;;;5095248;28;20075;-66
2022/04/10 09:56:07;;;;;;;5.93;1.98;;;7.60;99.90;;;;;;5093759;28;20402;-65
2022/04/10 09:58:35;;;;;;;6.90;2.17;;;7.80;99.90;;;;;;5089864;28;20438;-63
2022/04/10 10:01:04;;;;;;;4.78;1.65;;;7.90;99.90;;;;;;5084976;28;20056;-65
2022/04/10 10:03:37;;;;;;;6.35;2.30;;;8.00;99.90;;;;;;5078108;28;20495;-65
2022/04/10 10:06:06;;;;;;;11.95;1.98;;;7.60;99.90;;;;;;5051189;28;20048;-64
2022/04/10 10:08:34;;;;;;;4.78;2.25;;;7.70;99.90;;;;;;5058473;28;20496;-65
2022/04/10 10:11:02;;;;;;;4.57;1.90;;;7.80;99.90;;;;;;5063923;28;20040;-64
2022/04/10 10:13:31;;;;;;;5.38;2.30;;;7.90;99.90;;;;;;5073249;28;20400;-65
2022/04/10 10:15:58;;;;;;;8.20;2.35;;;8.10;99.90;;;;;;5074609;28;20061;-64
2022/04/10 10:18:26;;;;;;;4.97;2.20;;;8.10;99.90;;;;;;5062161;28;20075;-65
2022/04/10 10:20:53;;;;;;;6.20;2.00;;;8.30;99.90;;;;;;5070299;28;20123;-65
2022/04/10 10:23:22;;;;;;;4.22;1.90;;;8.20;99.90;;;;;;5073344;28;20029;-66
2022/04/10 10:25:59;;;;;;;6.88;2.30;;;8.00;99.90;;;;;;5054979;28;20462;-64
2022/04/10 10:28:58;;;;;;;8.52;2.38;;;8.20;99.90;;;;;;5065555;28;20416;-66
2022/04/10 10:31:44;;;;;;;6.22;2.30;;;8.30;99.90;;;;;;5054614;28;20158;-65
2022/04/10 10:34:12;;;;;;;6.78;2.08;;;8.30;99.90;;;;;;5069015;28;20095;-65
2022/04/10 10:36:41;;;;;;;5.78;2.20;;;8.20;99.90;;;;;;5063839;28;20048;-66
2022/04/10 10:39:08;;;;;;;6.40;2.40;;;8.00;99.90;;;;;;5070975;28;20064;-65
2022/04/10 10:41:38;;;;;;;4.80;2.28;;;8.00;99.90;;;;;;5070319;28;20564;-65
2022/04/10 10:44:27;;;;;;;6.28;1.80;;;8.30;99.90;;;;;;5073905;28;20136;-65
2022/04/10 10:47:00;;;;;;;4.50;2.00;;;8.30;99.90;;;;;;5063138;28;20252;-65
2022/04/10 10:49:30;;;;;;;6.88;2.42;;;8.90;99.90;;;;;;5057647;28;20218;-66
2022/04/10 10:52:09;;;;;;;9.00;2.25;;;9.00;99.90;;;;;;5051809;28;20052;-65
2022/04/10 10:54:59;;;;;;;5.18;1.98;;;8.80;99.90;;;;;;5050000;28;20140;-65
2022/04/10 10:57:37;;;;;;;5.03;2.22;;;8.80;99.90;;;;;;5053402;28;20531;-66
2022/04/10 11:00:16;;;;;;;5.57;1.98;;;8.70;99.90;;;;;;5043152;28;20072;-65
2022/04/10 11:02:52;;;;;;;4.60;2.00;;;8.60;99.90;;;;;;5051983;28;20076;-66
2022/04/10 11:05:29;;;;;;;5.53;2.00;;;8.80;99.90;;;;;;5045737;28;20045;-64
2022/04/10 11:08:09;;;;;;;6.35;2.00;;;8.70;99.90;;;;;;5049434;28;20100;-64
2022/04/10 11:10:59;;;;;;;6.90;2.20;;;8.80;99.90;;;;;;5049430;28;20056;-65
2022/04/10 11:13:37;;;;;;;5.60;1.88;;;8.80;99.90;;;;;;5042410;28;20053;-65
2022/04/10 11:16:13;;;;;;;9.45;2.30;;;8.70;99.90;;;;;;5052578;28;20299;-62
2022/04/10 11:18:48;;;;;;;6.72;2.28;;;8.50;99.90;;;;;;5050979;28;20040;-60
2022/04/10 11:21:20;;;;;;;5.57;1.88;;;8.80;99.90;;;;;;5052536;28;20512;-65
2022/04/10 11:23:57;;;;;;;5.90;2.00;;;9.10;99.90;;;;;;5050335;28;20041;-65
2022/04/10 11:26:35;;;;;;;4.22;1.88;;;8.70;99.90;;;;;;5048719;28;20144;-63
2022/04/10 11:29:07;;;;;;;6.05;2.10;;;8.90;99.90;;;;;;5051480;28;20084;-63
2022/04/10 11:31:40;;;;;;;6.43;1.83;;;8.90;99.90;;;;;;5047608;28;20037;-64
2022/04/10 11:34:12;;;;;;;5.53;1.83;;;9.00;99.90;;;;;;5046920;28;20060;-65
2022/04/10 11:36:54;;;;;;;8.43;2.10;;;8.70;99.90;;;;;;5059467;28;20116;-65
2022/04/10 11:39:33;;;;;;;5.82;2.22;;;8.70;99.90;;;;;;5052829;28;20091;-65
2022/04/10 11:42:07;;;;;;;6.68;2.22;;;9.10;99.90;;;;;;5063324;28;20124;-65
2022/04/10 11:44:35;;;;;;;7.13;1.85;;;9.10;99.90;;;;;;5056592;28;20539;-67
2022/04/10 11:47:10;;;;;;;6.53;2.13;;;9.10;99.90;;;;;;5064027;28;20514;-66
2022/04/10 11:49:38;;;;;;;5.13;1.50;;;9.20;99.90;;;;;;5050860;28;20827;-66
2022/04/10 11:52:07;;;;;;;4.40;1.40;;;9.80;99.90;;;;;;5056027;28;20451;-65
2022/04/10 11:54:37;;;;;;;6.10;1.77;;;10.10;99.80;;;;;;5064350;28;20492;-65
2022/04/10 11:57:07;;;;;;;4.97;1.42;;;10.40;99.90;;;;;;5056378;28;20042;-66
2022/04/10 11:59:36;;;;;;;4.38;1.70;;;10.00;99.90;;;;;;5064512;28;20060;-65
2022/04/10 12:02:06;;;;;;;3.67;1.40;;;9.60;99.90;;;;;;5046625;28;20467;-65
2022/04/10 12:04:36;;;;;;;5.22;1.60;;;9.30;99.90;;;;;;5052198;28;20068;-65
2022/04/10 12:07:20;;;;;;;4.78;1.73;;;9.10;99.90;;;;;;5051504;28;20120;-66
2022/04/10 12:09:52;;;;;;;5.22;1.67;;;8.60;99.90;;;;;;5054015;28;20072;-64
2022/04/10 12:12:22;;;;;;;5.65;1.60;;;8.40;99.90;;;;;;5050044;28;20131;-67
2022/04/10 12:14:50;;;;;;;9.05;2.60;;;8.30;99.90;;;;;;5055002;28;20058;-66
2022/04/10 12:17:21;;;;;;;7.43;1.88;;;8.70;99.90;;;;;;5051384;28;20578;-66
2022/04/10 12:19:54;;;;;;;9.00;2.27;;;8.70;99.90;;;;;;5053968;28;20044;-66
2022/04/10 12:22:25;;;;;;;8.60;2.15;;;8.50;99.90;;;;;;5051784;28;20326;-64
2022/04/10 12:24:59;;;;;;;9.93;2.80;;;8.50;99.90;;;;;;5053775;28;20066;-65
2022/04/10 12:27:27;;;;;;;7.15;3.28;;;8.50;99.90;;;;;;5041559;28;20041;-66
2022/04/10 12:29:55;;;;;;;5.55;2.70;;;8.50;99.90;;;;;;5046716;28;20041;-65
2022/04/10 12:32:24;;;;;;;5.63;2.47;;;8.70;99.90;;;;;;5051700;28;20045;-65
2022/04/10 12:34:54;;;;;;;4.97;2.25;;;8.50;99.90;;;;;;5049117;28;20119;-65
2022/04/10 12:37:21;;;;;;;5.60;2.25;;;8.60;99.90;;;;;;5049498;28;20064;-65
2022/04/10 12:39:49;;;;;;;5.30;2.20;;;8.60;99.90;;;;;;5048013;28;20048;-66
2022/04/10 12:42:20;;;;;;;7.68;2.53;;;8.50;99.90;;;;;;5053045;28;20051;-65
2022/04/10 12:44:56;;;;;;;6.68;2.40;;;8.50;99.90;;;;;;5052038;28;20052;-66
2022/04/10 12:47:44;;;;;;;6.22;2.47;;;8.20;99.90;;;;;;5049107;28;20114;-65
2022/04/10 12:50:18;;;;;;;5.70;2.30;;;8.20;99.90;;;;;;5053128;28;20047;-65
2022/04/10 12:52:46;;;;;;;9.27;2.33;;;8.00;99.90;;;;;;5048086;28;20468;-64
2022/04/10 12:55:24;;;;;;;9.75;2.58;;;7.70;99.90;;;;;;5052848;28;20159;-66
2022/04/10 12:58:07;;;;;;;5.50;2.65;;;7.60;99.90;;;;;;5056750;28;20036;-66
2022/04/10 13:00:44;;;;;;;6.90;2.30;;;7.70;99.90;;;;;;5056961;28;20478;-65
2022/04/10 13:03:26;;;;;;;6.38;2.55;;;7.90;99.90;;;;;;5044052;28;20040;-65
2022/04/10 13:06:01;;;;;;;10.27;2.40;;;7.90;99.90;;;;;;5070013;28;20051;-65
2022/04/10 13:08:37;;;;;;;6.55;2.45;;;7.60;99.90;;;;;;5070344;28;20048;-66
2022/04/10 13:11:07;;;;;;;5.22;2.17;;;7.80;99.90;;;;;;5055983;28;20476;-67
2022/04/10 13:13:56;;;;;;;7.65;2.40;;;7.90;99.90;;;;;;5069205;28;20509;-68
2022/04/10 13:16:31;;;;;;;7.45;2.63;;;8.00;99.90;;;;;;5051278;28;20045;-68
2022/04/10 13:19:03;;;;;;;8.80;2.17;;;8.00;99.90;;;;;;5060032;28;20052;-67
2022/04/10 13:21:32;;;;;;;9.10;2.38;;;8.00;99.90;;;;;;5051402;28;20061;-67
2022/04/10 13:24:00;;;;;;;5.28;2.50;;;7.90;99.90;;;;;;5059260;28;20044;-67
2022/04/10 13:26:33;;;;;;;6.57;2.20;;;8.00;99.90;;;;;;5066475;28;20045;-68
2022/04/10 13:29:02;;;;;;;24.08;2.40;;;8.00;99.90;;;;;;5048755;28;20471;-68
2022/04/10 13:31:30;;;;;;;7.65;2.67;;;8.00;99.90;;;;;;5033911;28;20041;-67
2022/04/10 13:33:58;;;;;;;5.85;2.15;;;8.40;99.90;;;;;;5033403;28;20041;-66
2022/04/10 13:36:26;;;;;;;6.38;2.30;;;8.60;99.90;;;;;;5061142;28;20113;-67
2022/04/10 13:38:53;;;;;;;8.10;2.38;;;8.60;99.90;;;;;;5038585;28;20863;-68
2022/04/10 13:41:21;;;;;;;7.55;2.03;;;8.70;99.90;;;;;;5040902;28;20049;-67
2022/04/10 13:43:49;;;;;;;5.63;2.42;;;8.70;99.90;;;;;;5048257;28;20053;-67
2022/04/10 13:46:16;;;;;;;5.30;2.10;;;8.60;99.90;;;;;;5063776;28;20075;-67
2022/04/10 13:48:44;;;;;;;7.82;2.30;;;8.50;99.90;;;;;;5061816;28;20506;-68
2022/04/10 13:51:11;;;;;;;6.97;1.95;;;8.40;99.90;;;;;;5064382;28;20036;-66
2022/04/10 13:53:38;;;;;;;5.10;1.95;;;8.30;99.90;;;;;;5060874;28;20223;-67
2022/04/10 13:56:06;;;;;;;5.55;2.17;;;8.20;99.90;;;;;;5059082;28;20057;-67
2022/04/10 13:58:33;;;;;;;4.10;2.10;;;8.30;99.90;;;;;;5062375;28;20059;-67
2022/04/10 14:01:00;;;;;;;6.70;2.13;;;8.70;99.90;;;;;;5051144;28;20128;-67
2022/04/10 14:03:29;;;;;;;6.15;1.90;;;10.30;99.90;;;;;;5048694;28;20059;-67
2022/04/10 14:05:56;;;;;;;10.85;2.53;;;12.00;99.90;;;;;;5047612;28;20163;-68
2022/04/10 14:08:26;;;;;;;4.50;2.10;;;11.70;99.90;;;;;;5046804;28;20040;-67
2022/04/10 14:11:13;;;;;;;8.02;3.00;;;10.80;99.90;;;;;;5045840;28;20041;-68
2022/04/10 14:13:41;;;;;;;5.35;2.47;;;10.50;99.90;;;;;;5040005;28;20044;-68
2022/04/10 14:16:08;;;;;;;6.88;2.17;;;10.50;99.90;;;;;;5048652;28;20049;-68
2022/04/10 14:18:36;;;;;;;8.25;3.15;;;10.70;99.90;;;;;;5051050;28;20508;-67
2022/04/10 14:21:03;;;;;;;8.30;2.08;;;11.10;99.90;;;;;;5050065;28;20064;-68
2022/04/10 14:23:30;;;;;;;5.82;2.13;;;12.10;99.90;;;;;;5049357;28;20530;-67
2022/04/10 14:25:57;;;;;;;6.38;2.00;;;12.60;99.90;;;;;;5054508;28;20132;-68
2022/04/10 14:28:25;;;;;;;5.82;2.28;;;12.30;99.90;;;;;;5056934;28;20043;-67
2022/04/10 14:30:52;;;;;;;8.50;2.38;;;11.30;99.90;;;;;;5048481;28;20063;-68
2022/04/10 14:33:26;;;;;;;7.53;2.67;;;10.60;99.90;;;;;;5054440;28;20041;-67
2022/04/10 14:35:53;;;;;;;5.57;2.40;;;10.30;99.90;;;;;;5055918;28;20049;-67
2022/04/10 14:38:20;;;;;;;8.02;2.70;;;10.10;99.90;;;;;;5052397;28;20045;-68
2022/04/10 14:40:48;;;;;;;7.18;2.55;;;9.90;99.90;;;;;;5047609;28;20102;-67
2022/04/10 14:43:15;;;;;;;4.63;2.33;;;9.60;99.90;;;;;;5059764;28;20064;-67
2022/04/10 14:45:42;;;;;;;7.07;2.63;;;9.40;99.90;;;;;;5064034;28;20415;-68
2022/04/10 14:48:10;;;;;;;7.38;2.47;;;9.50;99.90;;;;;;5051765;28;20033;-68
2022/04/10 14:50:38;;;;;;;5.90;2.10;;;11.00;99.90;;;;;;5041724;28;20109;-68
2022/04/10 14:53:06;;;;;;;4.40;1.90;;;12.80;99.90;;;;;;5050556;28;20128;-68
2022/04/10 14:55:33;;;;;;;6.30;2.55;;;13.70;99.10;;;;;;5052939;28;20131;-69